< < Back
Terminal Aerodrome Forecast


Current Version              Previous Versions:   1  2  3  4  5  6  7  8  9  

Terminal Aerodrome Forecast

070
FTUS42 KFFC 301120
TAFPDK
TAF
KPDK 301120Z 3012/3112 22010KT 5SM -SHRA SCT008 OVC015
      TEMPO 3012/3013 3SM TSRA BKN008CB
     FM301400 28008KT P6SM BKN012
     FM301700 30010G15KT P6SM BKN035
     FM301900 31011G16KT P6SM FEW035
     FM302200 30010KT P6SM SKC
     FM310200 VRB03KT P6SM SKC=



Latest METAR

101
SAUS70 KWBC 302300 RRD
MTRPDK
METAR KPDK 302253Z 29009KT 10SM CLR 19/05 A3009 RMK AO2 SLP185
T01940050


USA.gov is the U.S. government's official web portal to all federal, state and local government web resources and services.